Time;durP1;ratioP1;P1;durP2;ratioP2;P2;SDS_P1;SDS_P2;PMS_P1;PMS_P2;Temp;Humidity;BMP_temperature;BMP_pressure;BME280_temperature;BME280_humidity;BME280_pressure;Samples;Min_cycle;Max_cycle;Signal;HPM_P1;HPM_P2
2023/04/13 00:01:02;;;;;;;3.47;1.50;;;8.10;94.90;;;;;;5017816;28;20624;-91
2023/04/13 00:03:32;;;;;;;2.90;1.33;;;8.00;95.20;;;;;;5034860;28;20200;-90
2023/04/13 00:05:57;;;;;;;2.87;1.67;;;8.00;94.60;;;;;;5032970;28;20215;-90
2023/04/13 00:08:23;;;;;;;2.33;1.70;;;8.00;93.90;;;;;;5036482;28;20181;-87
2023/04/13 00:10:49;;;;;;;3.07;1.87;;;8.10;94.00;;;;;;5036191;28;20271;-90
2023/04/13 00:13:17;;;;;;;1.40;1.30;;;8.00;95.10;;;;;;5035496;28;20180;-90
2023/04/13 00:15:43;;;;;;;3.53;1.70;;;7.90;95.10;;;;;;5027342;28;20263;-90
2023/04/13 00:18:09;;;;;;;1.50;1.40;;;7.90;95.50;;;;;;5016528;28;20181;-89
2023/04/13 00:20:36;;;;;;;1.60;1.50;;;7.80;94.90;;;;;;5015991;28;20185;-88
2023/04/13 00:23:02;;;;;;;1.57;1.47;;;7.80;92.50;;;;;;5016556;28;20204;-89
2023/04/13 00:25:28;;;;;;;2.73;1.60;;;7.80;91.80;;;;;;5014403;28;20210;-88
2023/04/13 00:27:54;;;;;;;2.13;1.50;;;7.80;92.00;;;;;;5015055;28;20178;-89
2023/04/13 00:30:20;;;;;;;2.93;1.90;;;7.70;92.90;;;;;;5016065;28;20212;-90
2023/04/13 00:32:47;;;;;;;1.50;1.40;;;7.70;95.60;;;;;;5025060;28;20193;-89
2023/04/13 00:35:18;;;;;;;2.40;1.57;;;7.70;96.40;;;;;;5040094;28;20274;-89
2023/04/13 00:37:46;;;;;;;1.57;1.47;;;7.60;96.50;;;;;;5040766;28;20219;-89
2023/04/13 00:40:12;;;;;;;1.43;1.37;;;7.60;96.30;;;;;;5048148;28;20177;-90
2023/04/13 00:42:38;;;;;;;1.97;1.77;;;7.50;96.90;;;;;;5019750;28;20228;-89
2023/04/13 00:45:04;;;;;;;1.50;1.40;;;7.50;97.90;;;;;;5020059;28;20237;-89
2023/04/13 00:47:32;;;;;;;1.77;1.67;;;7.50;97.80;;;;;;5031783;28;20560;-89
2023/04/13 00:50:04;;;;;;;1.60;1.50;;;7.50;98.40;;;;;;5024071;28;20189;-89
2023/04/13 00:52:33;;;;;;;2.53;1.47;;;7.50;98.60;;;;;;5019055;28;20675;-89
2023/04/13 00:55:02;;;;;;;1.63;1.53;;;7.40;99.00;;;;;;5037866;28;20196;-91
2023/04/13 00:57:31;;;;;;;1.83;1.37;;;7.50;99.20;;;;;;5038100;28;20175;-91
2023/04/13 00:59:57;;;;;;;2.20;1.50;;;7.40;98.50;;;;;;5043827;28;20157;-94
2023/04/13 01:02:23;;;;;;;1.70;1.60;;;7.40;98.70;;;;;;5058742;28;20219;-92
2023/04/13 01:04:49;;;;;;;3.23;1.60;;;7.30;98.00;;;;;;5060153;28;20200;-93
2023/04/13 01:07:36;;;;;;;1.83;1.70;;;7.20;97.60;;;;;;5053976;28;20170;-94
2023/04/13 01:10:19;;;;;;;1.53;1.43;;;7.30;97.20;;;;;;5031163;28;20181;-91
2023/04/13 01:12:45;;;;;;;1.60;1.40;;;7.30;97.00;;;;;;5020786;28;20177;-90
2023/04/13 01:15:13;;;;;;;2.40;1.40;;;7.20;96.10;;;;;;5017431;28;20218;-89
2023/04/13 01:17:43;;;;;;;1.80;1.27;;;7.20;95.30;;;;;;5017186;28;20192;-89
2023/04/13 01:20:14;;;;;;;2.03;1.40;;;7.30;94.80;;;;;;5017461;28;20556;-90
2023/04/13 01:22:56;;;;;;;2.33;1.27;;;7.30;93.80;;;;;;5035116;28;20700;-91
2023/04/13 01:25:46;;;;;;;1.17;1.13;;;7.20;93.60;;;;;;5029663;28;20193;-90
2023/04/13 01:28:14;;;;;;;1.50;1.40;;;7.30;93.50;;;;;;5036575;28;20192;-89
2023/04/13 01:30:41;;;;;;;3.30;1.57;;;7.30;92.80;;;;;;5031571;28;20212;-89
2023/04/13 01:33:08;;;;;;;2.43;1.40;;;7.30;93.30;;;;;;5053736;28;20646;-89
2023/04/13 01:35:35;;;;;;;1.50;1.40;;;7.30;94.20;;;;;;5051414;28;20539;-89
2023/04/13 01:38:01;;;;;;;2.07;1.50;;;7.20;96.60;;;;;;5054576;28;20187;-90
2023/04/13 01:40:28;;;;;;;1.47;1.37;;;7.20;97.90;;;;;;5049800;28;20185;-89
2023/04/13 01:42:56;;;;;;;1.40;1.30;;;7.10;99.80;;;;;;5022809;28;20209;-89
2023/04/13 01:45:35;;;;;;;2.90;1.50;;;7.10;99.90;;;;;;5021356;28;20686;-89
2023/04/13 01:48:08;;;;;;;2.43;1.60;;;7.10;99.90;;;;;;5035984;28;20181;-89
2023/04/13 01:50:40;;;;;;;3.23;1.53;;;7.10;99.70;;;;;;5018073;28;20197;-90
2023/04/13 01:53:10;;;;;;;1.80;1.60;;;7.20;99.80;;;;;;5016169;28;20178;-90
2023/04/13 01:55:38;;;;;;;1.53;1.43;;;7.20;99.50;;;;;;5021375;28;20777;-89
2023/04/13 01:58:05;;;;;;;2.17;1.43;;;7.20;99.00;;;;;;5038282;28;20230;-90
2023/04/13 02:00:35;;;;;;;2.93;1.40;;;7.20;98.30;;;;;;5033103;28;20304;-89
2023/04/13 02:03:04;;;;;;;2.07;1.57;;;7.20;97.50;;;;;;5018470;28;20205;-91
2023/04/13 02:05:31;;;;;;;2.93;1.60;;;7.20;96.80;;;;;;5024785;28;20296;-88
2023/04/13 02:07:56;;;;;;;1.50;1.40;;;7.20;97.40;;;;;;5036379;28;20177;-91
2023/04/13 02:10:22;;;;;;;1.60;1.50;;;7.10;96.90;;;;;;5019756;28;20181;-87
2023/04/13 02:12:48;;;;;;;2.00;1.50;;;7.10;96.20;;;;;;5025664;28;20181;-89
2023/04/13 02:15:14;;;;;;;1.40;1.30;;;7.20;96.50;;;;;;5036500;28;20221;-90
2023/04/13 02:17:40;;;;;;;3.20;1.30;;;7.20;95.30;;;;;;5033336;28;20228;-93
2023/04/13 02:20:10;;;;;;;1.97;1.60;;;7.20;96.10;;;;;;5018332;28;20174;-90
2023/04/13 02:22:36;;;;;;;2.33;1.30;;;7.20;96.40;;;;;;5027952;28;20201;-90
2023/04/13 02:25:01;;;;;;;2.93;1.50;;;7.30;95.00;;;;;;5048613;28;20192;-89
2023/04/13 02:27:27;;;;;;;1.90;1.60;;;7.30;94.50;;;;;;5043689;28;20189;-90
2023/04/13 02:29:54;;;;;;;2.03;1.30;;;7.30;93.60;;;;;;5037544;28;20185;-89
2023/04/13 02:32:20;;;;;;;2.63;1.60;;;7.30;94.40;;;;;;5052259;28;20207;-89
2023/04/13 02:34:46;;;;;;;2.93;1.70;;;7.40;93.20;;;;;;5044420;28;20211;-90
2023/04/13 02:37:12;;;;;;;1.53;1.43;;;7.40;92.60;;;;;;5038405;28;20173;-90
2023/04/13 02:39:38;;;;;;;2.17;1.60;;;7.40;93.30;;;;;;5033895;28;20224;-90
2023/04/13 02:42:04;;;;;;;4.50;1.90;;;7.40;93.50;;;;;;5028805;28;20553;-88
2023/04/13 02:44:29;;;;;;;1.73;1.30;;;7.40;93.10;;;;;;5038067;28;20205;-91
2023/04/13 02:46:55;;;;;;;3.20;1.60;;;7.40;91.00;;;;;;5029339;28;20177;-90
2023/04/13 02:49:21;;;;;;;2.07;1.57;;;7.50;92.30;;;;;;5016052;28;20650;-91
2023/04/13 02:51:47;;;;;;;3.10;1.80;;;7.40;91.10;;;;;;5022016;28;20181;-91
2023/04/13 02:54:12;;;;;;;2.03;1.57;;;7.50;90.20;;;;;;5035189;28;20185;-91
2023/04/13 02:56:38;;;;;;;4.40;1.80;;;7.50;89.80;;;;;;5017965;28;20184;-89
2023/04/13 02:59:05;;;;;;;3.27;1.57;;;7.40;88.60;;;;;;5042790;28;20181;-92
2023/04/13 03:01:30;;;;;;;5.63;2.00;;;7.50;89.20;;;;;;5044812;28;20232;-89
2023/04/13 03:03:56;;;;;;;2.60;1.83;;;7.50;88.20;;;;;;5046112;28;20189;-93
2023/04/13 03:06:23;;;;;;;1.97;1.77;;;7.50;89.40;;;;;;5052303;28;20247;-94
2023/04/13 03:08:50;;;;;;;3.00;1.50;;;7.50;88.60;;;;;;5033878;28;20204;-93
2023/04/13 03:11:16;;;;;;;3.97;1.87;;;7.40;88.40;;;;;;5031768;28;20177;-90
2023/04/13 03:13:42;;;;;;;4.27;1.80;;;7.50;87.20;;;;;;5051995;28;20192;-91
2023/04/13 03:16:11;;;;;;;1.80;1.70;;;7.40;86.80;;;;;;5053075;28;20180;-93
2023/04/13 03:18:40;;;;;;;4.93;1.77;;;7.50;86.40;;;;;;5048473;28;20173;-88
2023/04/13 03:21:06;;;;;;;3.63;1.80;;;7.50;86.90;;;;;;5037753;28;20231;-90
2023/04/13 03:23:31;;;;;;;2.80;1.80;;;7.50;87.00;;;;;;5020981;28;20388;-88
2023/04/13 03:25:57;;;;;;;1.97;1.60;;;7.50;86.80;;;;;;5017145;28;20212;-90
2023/04/13 03:28:23;;;;;;;3.90;2.07;;;7.50;87.10;;;;;;5019760;28;20181;-90
2023/04/13 03:30:49;;;;;;;2.70;1.60;;;7.50;86.50;;;;;;5041918;28;20558;-89
2023/04/13 03:33:14;;;;;;;1.93;1.63;;;7.50;85.90;;;;;;5054642;28;20539;-91
2023/04/13 03:35:40;;;;;;;4.80;2.00;;;7.50;85.90;;;;;;5031610;28;20221;-90
2023/04/13 03:38:06;;;;;;;2.33;1.40;;;7.40;86.10;;;;;;5016721;28;20181;-90
2023/04/13 03:40:32;;;;;;;1.70;1.53;;;7.60;84.90;;;;;;5027546;28;20196;-90
2023/04/13 03:42:57;;;;;;;2.47;1.73;;;7.50;85.10;;;;;;5034279;28;20197;-89
2023/04/13 03:45:23;;;;;;;4.07;1.80;;;7.50;84.50;;;;;;5034470;28;20702;-91
2023/04/13 03:47:48;;;;;;;4.07;1.60;;;7.50;84.40;;;;;;5034753;28;20173;-89
2023/04/13 03:50:14;;;;;;;2.50;1.80;;;7.50;83.70;;;;;;5024535;28;20177;-90
2023/04/13 03:52:40;;;;;;;4.43;1.77;;;7.50;84.40;;;;;;5013370;28;20216;-89
2023/04/13 03:55:06;;;;;;;3.10;2.03;;;7.50;82.90;;;;;;5015261;28;20296;-90
2023/04/13 03:57:33;;;;;;;3.77;1.80;;;7.50;82.50;;;;;;5014723;28;20276;-89
2023/04/13 03:59:58;;;;;;;3.63;2.10;;;7.50;82.70;;;;;;5032312;28;20185;-89
2023/04/13 04:02:24;;;;;;;5.47;1.90;;;7.60;81.70;;;;;;5034115;28;20268;-90
2023/04/13 04:04:49;;;;;;;3.50;1.83;;;7.50;83.10;;;;;;5015705;28;20217;-90
2023/04/13 04:07:15;;;;;;;1.80;1.57;;;7.50;82.80;;;;;;5015293;28;20197;-90
2023/04/13 04:09:41;;;;;;;3.67;1.90;;;7.50;81.80;;;;;;5034891;28;20181;-91
2023/04/13 04:12:07;;;;;;;2.50;2.00;;;7.60;79.80;;;;;;5031401;28;20268;-90
2023/04/13 04:14:33;;;;;;;2.73;1.97;;;7.60;81.80;;;;;;5032167;28;20192;-89
2023/04/13 04:16:58;;;;;;;2.50;1.93;;;7.60;83.40;;;;;;5032933;28;20250;-92
2023/04/13 04:19:24;;;;;;;3.70;1.80;;;7.60;80.20;;;;;;5035590;28;20741;-90
2023/04/13 04:21:51;;;;;;;1.83;1.70;;;7.60;79.90;;;;;;5035135;28;20594;-91
2023/04/13 04:24:22;;;;;;;3.57;1.80;;;7.60;79.10;;;;;;5042770;28;20656;-90
2023/04/13 04:26:53;;;;;;;3.17;1.90;;;7.60;80.00;;;;;;5048156;28;20259;-89
2023/04/13 04:29:32;;;;;;;2.67;1.80;;;7.60;80.00;;;;;;5055500;28;20211;-90
2023/04/13 04:31:59;;;;;;;4.97;1.97;;;7.60;80.30;;;;;;5046071;28;20554;-89
2023/04/13 04:34:24;;;;;;;3.40;1.57;;;7.70;80.40;;;;;;5054693;28;20673;-89
2023/04/13 04:36:51;;;;;;;4.87;2.03;;;7.70;79.40;;;;;;5053457;28;20181;-89
2023/04/13 04:39:21;;;;;;;4.97;2.07;;;7.60;81.00;;;;;;5054038;28;20195;-91
2023/04/13 04:41:54;;;;;;;3.57;1.73;;;7.60;80.80;;;;;;5054398;28;20180;-89
2023/04/13 04:44:29;;;;;;;2.63;2.00;;;7.60;81.10;;;;;;5053578;28;20200;-89
2023/04/13 04:46:57;;;;;;;3.90;2.40;;;7.70;79.90;;;;;;5053118;28;20161;-90
2023/04/13 04:49:24;;;;;;;3.60;1.93;;;7.60;78.80;;;;;;5053406;28;20206;-89
2023/04/13 04:51:50;;;;;;;4.67;1.90;;;7.60;80.40;;;;;;5054696;28;20188;-90
2023/04/13 04:54:17;;;;;;;6.23;2.50;;;7.60;80.00;;;;;;5054722;28;20588;-90
2023/04/13 04:56:44;;;;;;;3.67;1.70;;;7.60;79.70;;;;;;5055189;28;20184;-89
2023/04/13 04:59:10;;;;;;;2.80;2.13;;;7.60;80.30;;;;;;5053309;28;20238;-92
2023/04/13 05:01:37;;;;;;;2.60;1.63;;;7.60;79.70;;;;;;5053968;28;20549;-89
2023/04/13 05:04:03;;;;;;;2.30;1.90;;;7.60;80.40;;;;;;5054004;28;20192;-89
2023/04/13 05:06:32;;;;;;;2.10;1.87;;;7.70;80.40;;;;;;5052952;28;20590;-91
2023/04/13 05:09:03;;;;;;;6.87;2.03;;;7.70;80.00;;;;;;5053788;28;20187;-89
2023/04/13 05:11:29;;;;;;;6.70;2.10;;;7.60;80.60;;;;;;5053181;28;20242;-90
2023/04/13 05:13:55;;;;;;;3.67;1.90;;;7.60;79.80;;;;;;5054324;28;20180;-89
2023/04/13 05:16:24;;;;;;;5.73;2.40;;;7.60;80.50;;;;;;5054494;28;20200;-89
2023/04/13 05:18:50;;;;;;;4.77;2.00;;;7.70;80.00;;;;;;5058746;28;20176;-89
2023/04/13 05:21:17;;;;;;;2.60;2.10;;;7.60;80.70;;;;;;5046946;28;20299;-89
2023/04/13 05:23:43;;;;;;;6.33;2.50;;;7.60;80.20;;;;;;5038201;28;20266;-90
2023/04/13 05:26:11;;;;;;;2.60;1.77;;;7.60;80.60;;;;;;5038222;28;20663;-90
2023/04/13 05:28:37;;;;;;;3.27;2.10;;;7.60;81.60;;;;;;5037868;28;20218;-89
2023/04/13 05:31:03;;;;;;;5.43;2.23;;;7.60;80.50;;;;;;5039378;28;20169;-89
2023/04/13 05:33:29;;;;;;;4.93;2.17;;;7.60;80.20;;;;;;5036752;28;20480;-90
2023/04/13 05:35:55;;;;;;;2.27;1.93;;;7.60;80.00;;;;;;5032258;28;20232;-90
2023/04/13 05:38:21;;;;;;;6.30;2.03;;;7.60;82.00;;;;;;5037760;28;20184;-88
2023/04/13 05:40:47;;;;;;;4.77;2.50;;;7.60;81.90;;;;;;5036944;28;20185;-89
2023/04/13 05:43:13;;;;;;;3.97;2.03;;;7.70;81.70;;;;;;5021716;28;20209;-91
2023/04/13 05:45:39;;;;;;;4.23;2.07;;;7.70;79.80;;;;;;5036720;28;20254;-89
2023/04/13 05:48:05;;;;;;;3.43;2.00;;;7.70;80.50;;;;;;5037799;28;20169;-90
2023/04/13 05:50:30;;;;;;;3.93;2.17;;;7.60;82.60;;;;;;5019683;28;20169;-92
2023/04/13 05:52:56;;;;;;;8.40;2.30;;;7.70;80.40;;;;;;5018412;28;20235;-88
2023/04/13 05:55:22;;;;;;;5.43;2.37;;;7.70;80.40;;;;;;5032651;28;20190;-93
2023/04/13 05:57:49;;;;;;;4.33;1.77;;;7.60;81.10;;;;;;5038641;28;20238;-91
2023/04/13 06:00:17;;;;;;;3.40;1.90;;;7.60;81.10;;;;;;5054447;28;20185;-93
2023/04/13 06:02:44;;;;;;;3.50;1.87;;;7.70;81.10;;;;;;5043990;28;20196;-92
2023/04/13 06:05:13;;;;;;;4.37;2.27;;;7.70;81.00;;;;;;5020848;28;20229;-90
2023/04/13 06:07:39;;;;;;;3.03;2.20;;;7.70;82.20;;;;;;5025881;28;20195;-90
2023/04/13 06:10:05;;;;;;;6.27;2.53;;;7.80;79.50;;;;;;5038162;28;20169;-88
2023/04/13 06:12:32;;;;;;;4.03;2.10;;;7.70;80.90;;;;;;5031267;28;20200;-90
2023/04/13 06:14:58;;;;;;;4.63;2.07;;;7.70;81.10;;;;;;5028826;28;20362;-89
2023/04/13 06:17:23;;;;;;;3.43;2.33;;;7.70;80.80;;;;;;5037730;28;20223;-90
2023/04/13 06:19:49;;;;;;;6.37;2.40;;;7.90;82.40;;;;;;5038288;28;20199;-91
2023/04/13 06:22:14;;;;;;;2.60;2.10;;;7.80;81.40;;;;;;5037874;28;20177;-91
2023/04/13 06:24:40;;;;;;;5.33;2.33;;;7.90;80.10;;;;;;5036080;28;20248;-90
2023/04/13 06:27:06;;;;;;;4.37;2.33;;;7.90;80.40;;;;;;5037531;28;20197;-90
2023/04/13 06:29:31;;;;;;;3.90;2.20;;;7.80;82.50;;;;;;5028733;28;20181;-88
2023/04/13 06:31:57;;;;;;;6.20;2.00;;;7.90;80.20;;;;;;5048595;28;20268;-92
2023/04/13 06:34:23;;;;;;;6.70;2.23;;;7.90;81.10;;;;;;5036035;28;20317;-93
2023/04/13 06:36:48;;;;;;;4.67;1.90;;;7.80;81.50;;;;;;5029997;28;20182;-89
2023/04/13 06:39:14;;;;;;;6.53;2.00;;;7.90;82.10;;;;;;5016204;28;20189;-90
2023/04/13 06:41:40;;;;;;;5.43;2.07;;;7.90;80.80;;;;;;5016248;28;20188;-91
2023/04/13 06:44:05;;;;;;;7.97;2.20;;;7.80;80.80;;;;;;5016561;28;20231;-91
2023/04/13 06:46:31;;;;;;;6.20;2.20;;;7.90;81.90;;;;;;5018086;28;20201;-89
2023/04/13 06:48:57;;;;;;;5.77;2.13;;;7.90;80.90;;;;;;5017511;28;20177;-90
2023/04/13 06:51:23;;;;;;;4.17;2.20;;;7.90;80.40;;;;;;5018638;28;20173;-89
2023/04/13 06:53:50;;;;;;;5.63;2.17;;;8.10;80.00;;;;;;5036574;28;20184;-91
2023/04/13 06:56:15;;;;;;;5.23;2.20;;;8.20;80.60;;;;;;5021539;28;20222;-90
2023/04/13 06:58:41;;;;;;;7.17;2.43;;;8.20;79.60;;;;;;5018293;28;20191;-90
2023/04/13 07:01:07;;;;;;;5.33;2.40;;;8.20;80.50;;;;;;5022787;28;20189;-89
2023/04/13 07:03:32;;;;;;;5.50;2.40;;;8.20;81.50;;;;;;5025705;28;20197;-91
2023/04/13 07:05:58;;;;;;;4.80;2.10;;;8.30;80.30;;;;;;5033854;28;20203;-92
2023/04/13 07:08:23;;;;;;;4.47;2.27;;;8.30;81.00;;;;;;5040011;28;20231;-92
2023/04/13 07:10:53;;;;;;;3.93;2.33;;;8.20;80.20;;;;;;5032578;28;20189;-90
2023/04/13 07:13:19;;;;;;;4.03;2.20;;;8.30;79.50;;;;;;5034190;28;20181;-91
2023/04/13 07:15:45;;;;;;;5.70;2.47;;;8.30;80.00;;;;;;5045207;28;20204;-90
2023/04/13 07:18:10;;;;;;;5.67;2.40;;;8.40;78.70;;;;;;5022773;28;20193;-90
2023/04/13 07:20:38;;;;;;;6.23;2.20;;;8.40;78.50;;;;;;5033804;28;20295;-91
2023/04/13 07:23:04;;;;;;;8.10;2.60;;;8.50;79.80;;;;;;5044284;28;20211;-88
2023/04/13 07:25:30;;;;;;;5.00;2.27;;;8.50;78.90;;;;;;5056418;28;20204;-90
2023/04/13 07:27:56;;;;;;;4.90;1.93;;;8.70;76.10;;;;;;5039511;28;20181;-90
2023/04/13 07:30:22;;;;;;;8.03;2.73;;;8.70;78.60;;;;;;5016449;28;20182;-91
2023/04/13 07:32:47;;;;;;;6.57;2.47;;;8.90;76.00;;;;;;5016513;28;20252;-89
2023/04/13 07:35:13;;;;;;;6.97;2.80;;;8.90;76.30;;;;;;5015525;28;20201;-89
2023/04/13 07:37:41;;;;;;;4.50;2.00;;;8.80;75.90;;;;;;5041080;28;20185;-89
2023/04/13 07:40:07;;;;;;;4.80;2.53;;;8.90;77.50;;;;;;5020962;28;20323;-89
2023/04/13 07:42:32;;;;;;;4.57;2.43;;;8.90;74.10;;;;;;5034720;28;20180;-89
2023/04/13 07:44:58;;;;;;;6.40;2.23;;;9.10;75.70;;;;;;5033211;28;20203;-87
2023/04/13 07:47:24;;;;;;;7.63;2.97;;;9.10;74.90;;;;;;5035686;28;20215;-88
2023/04/13 07:49:50;;;;;;;4.93;2.23;;;9.20;73.90;;;;;;5033946;28;20259;-89
2023/04/13 07:52:15;;;;;;;5.13;2.10;;;9.30;73.20;;;;;;5034247;28;20501;-88
2023/04/13 07:54:41;;;;;;;7.97;2.83;;;9.20;74.70;;;;;;5018799;28;20786;-89
2023/04/13 07:57:06;;;;;;;6.30;2.53;;;9.20;72.70;;;;;;5026665;28;20556;-89
2023/04/13 07:59:32;;;;;;;7.60;2.67;;;9.30;72.10;;;;;;5033958;28;20204;-90
2023/04/13 08:01:58;;;;;;;7.67;2.77;;;9.20;73.20;;;;;;5034832;28;20255;-89
2023/04/13 08:04:24;;;;;;;6.53;2.80;;;9.00;75.20;;;;;;5033872;28;20212;-89
2023/04/13 08:06:50;;;;;;;6.57;2.47;;;8.80;77.10;;;;;;5033907;28;20191;-87
2023/04/13 08:09:17;;;;;;;7.83;3.17;;;8.70;76.10;;;;;;5043853;28;20232;-89
2023/04/13 08:11:42;;;;;;;5.80;2.80;;;8.10;81.80;;;;;;5049841;28;20172;-87
2023/04/13 08:14:10;;;;;;;5.63;2.80;;;7.80;87.20;;;;;;5058064;28;20207;-90
2023/04/13 08:16:36;;;;;;;9.73;2.87;;;7.90;92.00;;;;;;5041699;28;20476;-87
2023/04/13 08:19:02;;;;;;;11.43;3.50;;;8.00;90.40;;;;;;5038108;28;20188;-88
2023/04/13 08:21:28;;;;;;;6.23;3.27;;;8.00;93.10;;;;;;5038417;28;20603;-88
2023/04/13 08:23:55;;;;;;;7.83;2.77;;;8.10;96.90;;;;;;5036679;28;20200;-87
2023/04/13 08:26:21;;;;;;;4.23;2.73;;;8.00;91.70;;;;;;5035844;28;20609;-86
2023/04/13 08:28:47;;;;;;;6.00;2.80;;;8.00;90.80;;;;;;5036085;28;20173;-88
2023/04/13 08:31:14;;;;;;;11.10;3.50;;;8.00;87.50;;;;;;5039918;28;20233;-87
2023/04/13 08:33:40;;;;;;;4.93;2.70;;;8.00;94.20;;;;;;5057942;28;20180;-87
2023/04/13 08:36:06;;;;;;;6.30;2.83;;;8.00;90.90;;;;;;5035825;28;20224;-88
2023/04/13 08:38:35;;;;;;;4.83;2.93;;;8.20;94.80;;;;;;5017821;28;20433;-88
2023/04/13 08:41:02;;;;;;;5.50;2.70;;;8.20;93.70;;;;;;5019581;28;20182;-86
2023/04/13 08:43:27;;;;;;;6.77;2.50;;;8.30;96.20;;;;;;5018762;28;20244;-87
2023/04/13 08:45:53;;;;;;;6.37;2.63;;;8.30;94.70;;;;;;5025545;28;20201;-86
2023/04/13 08:48:21;;;;;;;7.70;2.77;;;8.30;94.90;;;;;;5037621;28;20654;-86
2023/04/13 08:50:50;;;;;;;5.67;2.83;;;8.30;96.50;;;;;;5037508;28;20667;-85
2023/04/13 08:53:17;;;;;;;8.40;3.03;;;8.30;96.70;;;;;;5040814;28;20204;-88
2023/04/13 08:55:46;;;;;;;8.43;3.17;;;8.30;96.40;;;;;;5040209;28;20287;-89
2023/04/13 08:58:13;;;;;;;14.93;3.60;;;8.20;96.90;;;;;;5042537;28;20181;-86
2023/04/13 09:00:42;;;;;;;9.70;3.20;;;8.40;96.20;;;;;;5042607;28;20181;-86
2023/04/13 09:03:12;;;;;;;6.40;3.00;;;8.40;97.00;;;;;;5042946;28;20197;-86
2023/04/13 09:05:40;;;;;;;6.47;2.97;;;8.40;96.90;;;;;;5049440;28;20224;-87
2023/04/13 09:08:08;;;;;;;4.83;2.70;;;8.20;97.50;;;;;;5058526;28;20246;-87
2023/04/13 09:10:34;;;;;;;6.97;3.10;;;8.20;96.00;;;;;;5060876;28;20176;-85
2023/04/13 09:13:00;;;;;;;12.27;3.20;;;8.30;99.90;;;;;;5045538;28;20252;-87
2023/04/13 09:15:26;;;;;;;8.67;2.80;;;8.50;99.90;;;;;;5022087;28;20215;-89
2023/04/13 09:17:52;;;;;;;6.10;2.67;;;8.60;99.90;;;;;;5022427;28;20226;-88
2023/04/13 09:20:22;;;;;;;8.97;3.33;;;8.80;97.20;;;;;;5023477;28;20178;-87
2023/04/13 09:22:50;;;;;;;8.07;3.13;;;9.00;99.90;;;;;;5020438;28;20579;-86
2023/04/13 09:25:27;;;;;;;12.07;3.20;;;8.90;98.90;;;;;;5023887;28;20198;-89
2023/04/13 09:27:58;;;;;;;8.23;3.53;;;8.90;92.40;;;;;;5020247;28;20525;-88
2023/04/13 09:30:26;;;;;;;7.50;4.00;;;9.00;96.20;;;;;;5020015;28;20193;-85
2023/04/13 09:33:05;;;;;;;8.43;4.00;;;9.10;95.10;;;;;;5051814;28;20195;-87
2023/04/13 09:35:32;;;;;;;9.33;3.40;;;9.20;92.60;;;;;;5024529;28;20450;-90
2023/04/13 09:38:01;;;;;;;10.00;3.60;;;9.20;90.90;;;;;;5041018;28;20558;-87
2023/04/13 09:40:27;;;;;;;5.37;2.50;;;9.30;93.40;;;;;;5042008;28;20520;-88
2023/04/13 09:43:01;;;;;;;7.43;2.97;;;9.00;89.10;;;;;;5040323;28;20196;-88
2023/04/13 09:45:34;;;;;;;8.23;2.60;;;9.00;92.80;;;;;;5022871;28;20566;-87
2023/04/13 09:48:02;;;;;;;8.33;2.83;;;8.90;87.60;;;;;;5038961;28;20200;-84
2023/04/13 09:50:30;;;;;;;6.87;2.40;;;9.20;88.20;;;;;;5020453;28;20910;-86
2023/04/13 09:53:04;;;;;;;7.50;2.57;;;9.50;91.10;;;;;;5021143;28;20174;-88
2023/04/13 09:55:32;;;;;;;7.77;3.00;;;9.80;86.20;;;;;;5021679;28;20261;-88
2023/04/13 09:58:13;;;;;;;6.70;2.90;;;10.00;83.90;;;;;;5022607;28;20251;-88
2023/04/13 10:00:42;;;;;;;7.77;2.77;;;9.70;82.50;;;;;;5030312;28;20176;-87
2023/04/13 10:03:12;;;;;;;7.63;3.07;;;9.50;88.40;;;;;;5061338;28;20192;-89
2023/04/13 10:05:39;;;;;;;4.90;2.63;;;9.50;85.70;;;;;;5045257;28;20212;-88
2023/04/13 10:08:05;;;;;;;5.57;2.37;;;9.40;81.30;;;;;;5040666;28;20196;-87
2023/04/13 10:10:35;;;;;;;4.33;2.80;;;9.60;83.60;;;;;;5021080;28;20185;-86
2023/04/13 10:13:05;;;;;;;4.00;2.30;;;9.80;85.20;;;;;;5020108;28;20198;-89
2023/04/13 10:15:49;;;;;;;4.60;2.40;;;9.80;75.50;;;;;;5018746;28;20202;-88
2023/04/13 10:18:56;;;;;;;4.33;2.33;;;9.80;81.80;;;;;;5019856;28;20185;-88
2023/04/13 10:21:24;;;;;;;7.03;3.03;;;9.90;77.90;;;;;;5022049;28;20193;-88
2023/04/13 10:23:51;;;;;;;9.77;2.90;;;9.90;78.40;;;;;;5049881;28;20208;-87
2023/04/13 10:26:18;;;;;;;7.47;3.20;;;9.60;79.70;;;;;;5020176;28;20201;-88
2023/04/13 10:28:46;;;;;;;7.10;3.13;;;9.60;84.20;;;;;;5025299;28;20177;-86
2023/04/13 10:31:13;;;;;;;6.53;2.77;;;9.80;82.90;;;;;;5025391;28;20178;-84
2023/04/13 10:33:51;;;;;;;5.27;3.10;;;9.80;77.70;;;;;;5038343;28;20192;-88
2023/04/13 10:36:17;;;;;;;7.83;3.07;;;9.80;80.90;;;;;;5047937;28;20204;-87
2023/04/13 10:38:43;;;;;;;7.50;2.87;;;9.70;81.20;;;;;;5039857;28;20192;-89
2023/04/13 10:41:09;;;;;;;7.70;3.13;;;9.70;82.60;;;;;;5041192;28;20223;-88
2023/04/13 10:43:35;;;;;;;7.33;2.93;;;9.90;81.80;;;;;;5036661;28;20197;-88
2023/04/13 10:46:09;;;;;;;9.27;3.37;;;10.00;79.20;;;;;;5046625;28;20193;-90
2023/04/13 10:48:36;;;;;;;4.57;2.70;;;10.50;80.10;;;;;;5054115;28;20230;-90
2023/04/13 10:51:02;;;;;;;8.53;3.07;;;10.90;81.60;;;;;;5037715;28;20182;-90
2023/04/13 10:53:29;;;;;;;6.07;2.80;;;10.80;76.60;;;;;;5043331;28;20219;-87
2023/04/13 10:55:56;;;;;;;6.27;3.00;;;10.90;81.30;;;;;;5040621;28;20204;-86
2023/04/13 10:58:22;;;;;;;7.27;3.20;;;10.80;79.80;;;;;;5039822;28;20184;-87
2023/04/13 11:00:53;;;;;;;6.23;2.87;;;11.00;77.40;;;;;;5045682;28;20727;-88
2023/04/13 11:03:19;;;;;;;6.53;2.80;;;10.50;76.70;;;;;;5039566;28;20197;-88
2023/04/13 11:05:46;;;;;;;6.93;2.90;;;10.40;79.80;;;;;;5045292;28;20718;-88
2023/04/13 11:08:19;;;;;;;7.43;4.30;;;10.20;76.80;;;;;;5058886;28;20188;-87
2023/04/13 11:10:52;;;;;;;6.60;2.90;;;10.50;75.00;;;;;;5057916;28;20168;-89
2023/04/13 11:13:19;;;;;;;6.17;2.60;;;10.50;76.60;;;;;;5048558;28;20691;-90
2023/04/13 11:15:46;;;;;;;3.63;2.57;;;10.50;79.40;;;;;;5023821;28;20775;-87
2023/04/13 11:18:12;;;;;;;4.37;2.53;;;11.20;74.80;;;;;;5037507;28;20651;-88
2023/04/13 11:20:40;;;;;;;5.07;2.63;;;11.30;75.30;;;;;;5036989;28;20189;-87
2023/04/13 11:23:14;;;;;;;6.57;2.40;;;11.10;72.40;;;;;;5021695;28;20219;-86
2023/04/13 11:25:58;;;;;;;9.43;7.43;;;10.90;74.50;;;;;;5016526;28;20758;-88
2023/04/13 11:28:34;;;;;;;3.27;2.30;;;11.00;75.20;;;;;;5017328;28;20180;-85
2023/04/13 11:31:00;;;;;;;3.43;2.70;;;11.70;71.90;;;;;;5028791;28;20162;-88
2023/04/13 11:33:28;;;;;;;5.00;2.50;;;12.20;66.20;;;;;;5054737;28;20279;-88
2023/04/13 11:35:55;;;;;;;3.57;2.27;;;12.60;66.40;;;;;;5038598;28;20228;-86
2023/04/13 11:38:22;;;;;;;5.23;2.43;;;12.10;68.20;;;;;;5018665;28;20221;-88
2023/04/13 11:40:49;;;;;;;4.67;2.73;;;12.20;67.60;;;;;;5031272;28;20190;-88
2023/04/13 11:43:17;;;;;;;4.60;2.90;;;12.50;69.60;;;;;;5034471;28;20208;-88
2023/04/13 11:45:45;;;;;;;16.13;12.10;;;12.90;65.60;;;;;;5047639;28;20210;-91
2023/04/13 11:48:12;;;;;;;8.80;2.70;;;12.60;61.80;;;;;;5054405;28;20189;-88
2023/04/13 11:50:38;;;;;;;6.63;2.80;;;12.60;61.00;;;;;;5055944;28;20191;-89
2023/04/13 11:53:06;;;;;;;4.13;2.67;;;12.90;59.70;;;;;;5068463;28;20190;-89
2023/04/13 11:55:33;;;;;;;3.80;2.73;;;13.00;62.60;;;;;;5054642;28;20233;-88
2023/04/13 11:58:06;;;;;;;5.77;3.03;;;13.30;58.80;;;;;;5034182;28;20596;-88
2023/04/13 12:00:32;;;;;;;3.90;2.30;;;13.40;61.30;;;;;;5035275;28;20183;-88
2023/04/13 12:02:58;;;;;;;3.63;3.00;;;13.70;59.20;;;;;;5034884;28;20290;-87
2023/04/13 12:05:24;;;;;;;6.33;2.93;;;14.10;59.20;;;;;;5033040;28;20294;-88
2023/04/13 12:07:53;;;;;;;4.10;2.80;;;14.30;55.60;;;;;;5016729;28;20227;-87
2023/04/13 12:10:29;;;;;;;6.53;3.70;;;13.90;55.00;;;;;;5015371;28;20212;-87
2023/04/13 12:12:59;;;;;;;5.03;3.10;;;13.80;57.30;;;;;;5013916;28;20177;-86
2023/04/13 12:15:30;;;;;;;7.87;3.27;;;13.20;59.40;;;;;;5012892;28;20249;-86
2023/04/13 12:17:58;;;;;;;6.93;3.10;;;12.90;60.80;;;;;;5013506;28;20184;-87
2023/04/13 12:20:25;;;;;;;5.20;2.63;;;12.40;63.90;;;;;;5013887;28;20684;-87
2023/04/13 12:22:51;;;;;;;3.93;2.40;;;11.80;70.60;;;;;;5013954;28;20185;-86
2023/04/13 12:25:21;;;;;;;4.03;2.33;;;11.50;71.80;;;;;;5014569;28;20197;-88
2023/04/13 12:27:51;;;;;;;4.37;2.60;;;11.40;70.50;;;;;;5031414;28;20185;-87
2023/04/13 12:30:18;;;;;;;2.00;1.90;;;11.40;69.60;;;;;;5034101;28;20177;-87
2023/04/13 12:32:46;;;;;;;3.13;1.80;;;11.50;68.60;;;;;;5047234;28;20195;-86
2023/04/13 12:35:12;;;;;;;4.13;2.13;;;12.00;66.80;;;;;;5052401;28;20196;-87
2023/04/13 12:37:42;;;;;;;3.70;2.03;;;12.10;66.50;;;;;;5020846;28;20190;-88
2023/04/13 12:40:11;;;;;;;2.67;2.27;;;12.10;65.10;;;;;;5013705;28;20638;-86
2023/04/13 12:42:39;;;;;;;4.10;2.50;;;12.50;65.40;;;;;;5013586;28;20747;-89
2023/04/13 12:45:05;;;;;;;5.40;2.87;;;13.10;63.50;;;;;;5012874;28;20283;-86
2023/04/13 12:47:31;;;;;;;5.27;2.83;;;13.50;65.50;;;;;;5015887;28;20696;-87
2023/04/13 12:49:56;;;;;;;5.60;2.80;;;13.50;62.30;;;;;;5032950;28;20184;-86
2023/04/13 12:52:22;;;;;;;2.50;2.30;;;13.80;60.10;;;;;;5052655;28;20187;-87
2023/04/13 12:54:48;;;;;;;5.00;3.17;;;14.30;62.60;;;;;;5054619;28;20207;-87
2023/04/13 12:57:16;;;;;;;7.40;3.60;;;13.80;61.40;;;;;;5030663;28;20608;-85